Time;durP1;ratioP1;P1;durP2;ratioP2;P2;SDS_P1;SDS_P2;PMS_P1;PMS_P2;Temp;Humidity;BMP_temperature;BMP_pressure;BME280_temperature;BME280_humidity;BME280_pressure;Samples;Min_cycle;Max_cycle;Signal;HPM_P1;HPM_P2
2022/05/14 00:01:48;;;;;;;26.23;2.47;;;;;;;24.43;41.51;99769.06;7313549;19;158814;-39
2022/05/14 00:04:13;;;;;;;20.80;1.80;;;;;;;24.41;41.12;99760.50;7315334;19;154410;-36
2022/05/14 00:06:38;;;;;;;25.03;2.53;;;;;;;24.42;40.85;99767.44;7312727;19;128829;-40
2022/05/14 00:09:05;;;;;;;13.77;1.50;;;;;;;24.46;41.52;99768.78;7316025;19;129240;-37
2022/05/14 00:14:16;;;;;;;19.45;1.77;;;;;;;24.46;41.37;99774.03;7317427;19;129498;-39
2022/05/14 00:16:42;;;;;;;22.47;2.03;;;;;;;24.46;41.53;99774.03;7316868;19;129726;-41
2022/05/14 00:19:08;;;;;;;37.10;3.50;;;;;;;24.40;41.19;99768.56;7315864;19;129119;-40
2022/05/14 00:21:35;;;;;;;34.10;3.08;;;;;;;24.40;40.90;99769.41;7314014;19;129811;-37
2022/05/14 00:24:02;;;;;;;25.92;2.53;;;;;;;24.40;41.41;99769.41;7316336;19;129209;-38
2022/05/14 00:26:27;;;;;;;;;;;;;;;24.41;40.96;99765.78;7306057;19;129852;-39
2022/05/14 00:28:53;;;;;;;40.57;3.27;;;;;;;24.37;40.99;99759.19;7313648;19;149847;-37
2022/05/14 00:31:18;;;;;;;39.70;3.42;;;;;;;24.42;40.90;99761.34;7311127;19;130703;-36
2022/05/14 00:33:45;;;;;;;8.77;1.27;;;;;;;24.42;41.51;99756.94;7312270;19;154808;-37
2022/05/14 00:36:12;;;;;;;38.83;3.45;;;;;;;24.41;41.26;99764.97;7308393;19;129143;-40
2022/05/14 00:38:38;;;;;;;12.02;1.45;;;;;;;24.44;40.92;99765.47;7314012;19;130756;-38
2022/05/14 00:41:06;;;;;;;48.10;4.30;;;;;;;24.42;41.59;99766.59;7311638;19;129297;-37
2022/05/14 00:43:34;;;;;;;22.17;2.10;;;;;;;24.42;40.97;99761.34;7313809;19;129637;-37
2022/05/14 00:46:14;;;;;;;27.02;2.50;;;;;;;24.47;41.24;99756.47;7311177;19;129139;-37
2022/05/14 00:48:42;;;;;;;34.90;3.25;;;;;;;24.47;40.78;99764.34;7314153;19;129961;-39
2022/05/14 00:51:11;;;;;;;39.42;3.78;;;;;;;24.41;40.85;99754.47;7309453;19;129590;-38
2022/05/14 00:53:42;;;;;;;27.95;2.55;;;;;;;24.46;41.21;99755.63;7313515;19;129191;-38
2022/05/14 00:56:11;;;;;;;16.73;1.90;;;;;;;24.38;41.37;99750.31;7310066;19;129539;-37
2022/05/14 00:58:48;;;;;;;15.85;1.63;;;;;;;24.46;41.30;99754.81;7312726;19;130446;-39
2022/05/14 01:01:14;;;;;;;20.65;1.85;;;;;;;24.44;41.19;99754.16;7312931;19;131141;-38
2022/05/14 01:03:39;;;;;;;25.05;2.25;;;;;;;24.45;41.47;99743.47;7314482;19;128829;-39
2022/05/14 01:06:08;;;;;;;25.87;2.47;;;;;;;24.40;41.48;99747.53;7311292;19;129072;-40
2022/05/14 01:08:35;;;;;;;22.88;2.15;;;;;;;24.45;41.37;99740.00;7311042;19;129725;-41
2022/05/14 01:11:00;;;;;;;31.40;2.80;;;;;;;24.39;41.51;99725.69;7307928;19;129788;-36
2022/05/14 01:13:26;;;;;;;27.87;2.77;;;;;;;24.43;41.72;99742.78;7311507;19;129183;-37
2022/05/14 01:15:55;;;;;;;26.57;2.17;;;;;;;24.45;41.13;99747.91;7309090;19;153962;-38
2022/05/14 01:18:22;;;;;;;31.27;2.90;;;;;;;24.42;40.68;99749.03;7313088;19;129367;-38
2022/05/14 01:20:55;;;;;;;27.60;2.20;;;;;;;24.41;40.93;99755.25;7312863;19;131058;-38
2022/05/14 01:26:27;;;;;;;24.65;2.30;;;;;;;24.46;41.42;99745.13;7313213;19;129172;-37
2022/05/14 01:26:47;;;;;;;12.73;1.23;;;;;;;24.45;41.10;99747.91;7312690;19;128926;-39
2022/05/14 01:29:22;;;;;;;23.20;2.20;;;;;;;24.45;41.10;99759.25;7312194;19;129584;-38
2022/05/14 01:31:49;;;;;;;23.63;2.03;;;;;;;24.49;41.19;99750.06;7310453;19;131120;-36
2022/05/14 01:34:22;;;;;;;22.60;2.25;;;;;;;24.38;41.18;99752.94;7313642;19;129771;-37
2022/05/14 01:36:47;;;;;;;18.88;1.65;;;;;;;24.45;41.45;99756.63;7313535;19;129263;-39
2022/05/14 01:39:13;;;;;;;27.00;2.30;;;;;;;24.48;40.75;99744.16;7311747;19;129143;-37
2022/05/14 01:41:38;;;;;;;33.72;2.65;;;;;;;24.44;40.67;99747.06;7311657;19;129833;-39
2022/05/14 01:44:05;;;;;;;32.00;3.03;;;;;;;24.39;40.79;99733.56;7308403;19;129327;-40
2022/05/14 01:46:30;;;;;;;25.30;2.50;;;;;;;24.42;41.54;99756.94;7309117;19;129692;-37
2022/05/14 01:48:56;;;;;;;23.70;2.30;;;;;;;24.42;40.94;99754.31;7312101;19;130335;-37
2022/05/14 01:51:21;;;;;;;26.40;2.20;;;;;;;24.46;40.77;99747.75;7310006;19;130686;-37
2022/05/14 01:53:47;;;;;;;23.15;1.98;;;;;;;24.45;41.64;99746.09;7307420;19;154506;-40
2022/05/14 01:56:12;;;;;;;26.30;2.33;;;;;;;24.42;41.42;99750.84;7306734;19;129374;-38
2022/05/14 01:58:38;;;;;;;39.80;3.60;;;;;;;24.44;41.43;99749.69;7310523;19;145410;-37
2022/05/14 02:01:13;;;;;;;40.03;3.40;;;;;;;24.45;41.08;99750.53;7309950;19;130878;-39
2022/05/14 02:03:39;;;;;;;28.67;2.70;;;;;;;24.44;40.92;99748.88;7311479;19;128981;-37
2022/05/14 02:06:05;;;;;;;30.13;2.63;;;;;;;24.40;41.62;99751.00;7308909;19;129165;-43
2022/05/14 02:08:30;;;;;;;37.07;3.23;;;;;;;24.45;41.51;99746.09;7309107;19;130917;-38
2022/05/14 02:10:56;;;;;;;28.73;2.65;;;;;;;24.45;41.40;99735.59;7307928;19;131121;-38
2022/05/14 02:13:21;;;;;;;17.37;1.63;;;;;;;24.37;41.21;99727.66;7309611;19;152803;-37
2022/05/14 02:15:46;;;;;;;26.43;2.50;;;;;;;24.42;41.12;99740.31;7306053;19;154800;-39
2022/05/14 02:18:11;;;;;;;30.63;2.63;;;;;;;24.39;41.43;99736.19;7309465;19;145392;-40
2022/05/14 02:20:37;;;;;;;38.97;3.20;;;;;;;24.40;40.75;99729.97;7308277;19;158456;-37
2022/05/14 02:23:02;;;;;;;37.17;3.20;;;;;;;24.45;41.23;99735.59;7309865;19;129185;-37
2022/05/14 02:25:28;;;;;;;34.40;3.33;;;;;;;24.47;41.23;99735.44;7307607;19;129251;-40
2022/05/14 02:27:53;;;;;;;24.60;2.47;;;;;;;24.45;41.13;99737.38;7310357;19;129837;-37
2022/05/14 02:30:19;;;;;;;102.97;9.43;;;;;;;24.42;40.80;99714.88;7304956;19;158839;-36
2022/05/14 02:32:44;;;;;;;16.40;1.73;;;;;;;24.48;41.16;99728.38;7311688;19;128871;-38
2022/05/14 02:35:09;;;;;;;25.83;2.30;;;;;;;24.43;41.68;99719.16;7308927;19;153815;-37
2022/05/14 02:37:35;;;;;;;19.67;1.87;;;;;;;24.39;40.87;99720.41;7311218;19;129664;-38
2022/05/14 02:40:01;;;;;;;34.77;3.30;;;;;;;24.42;41.55;99729.81;7311166;19;130462;-40
2022/05/14 02:42:26;;;;;;;31.60;2.47;;;;;;;24.45;40.76;99726.88;7312135;19;129360;-38
2022/05/14 02:44:51;;;;;;;10.15;0.98;;;;;;;24.32;41.63;99711.53;7309555;19;154176;-41
2022/05/14 02:47:17;;;;;;;22.42;2.15;;;;;;;24.44;41.23;99722.59;7311019;19;129149;-39
2022/05/14 02:49:43;;;;;;;23.90;2.13;;;;;;;24.39;41.22;99720.41;7310900;19;129757;-41
2022/05/14 02:52:09;;;;;;;47.97;4.30;;;;;;;24.42;41.63;99730.66;7307084;19;154560;-36
2022/05/14 02:54:35;;;;;;;;;;;;;;;24.40;40.80;99716.84;7310897;19;128958;-38
2022/05/14 02:57:00;;;;;;;55.20;4.68;;;;;;;24.42;40.64;99724.56;7309949;19;129487;-42
2022/05/14 02:59:26;;;;;;;21.08;1.85;;;;;;;24.46;40.71;99724.09;7309732;19;159371;-40
2022/05/14 03:01:52;;;;;;;23.33;2.08;;;;;;;24.46;40.80;99726.72;7317478;19;128924;-38
2022/05/14 03:04:23;;;;;;;31.67;2.55;;;;;;;24.44;41.10;99726.03;7317847;19;129624;-38
2022/05/14 03:06:52;;;;;;;8.68;0.90;;;;;;;24.46;40.85;99726.72;7316420;19;130895;-37
2022/05/14 03:09:18;;;;;;;20.90;2.13;;;;;;;24.43;41.52;99723.56;7315679;19;129699;-37
2022/05/14 03:11:44;;;;;;;15.33;1.30;;;;;;;24.43;41.27;99724.41;7314914;19;129154;-37
2022/05/14 03:14:10;;;;;;;34.77;3.30;;;;;;;24.44;40.93;99723.41;7316858;19;128994;-41
2022/05/14 03:16:35;;;;;;;61.25;5.10;;;;;;;24.38;41.70;99712.69;7311539;19;131327;-38
2022/05/14 03:19:01;;;;;;;31.43;2.87;;;;;;;24.43;41.21;99727.03;7316403;19;130200;-38
2022/05/14 03:21:26;;;;;;;22.90;1.93;;;;;;;24.45;40.60;99734.75;7313687;19;154216;-38
2022/05/14 03:23:51;;;;;;;12.23;1.20;;;;;;;24.43;41.40;99731.44;7311056;19;154522;-38
2022/05/14 03:26:17;;;;;;;40.40;3.55;;;;;;;24.45;40.84;99726.88;7309293;19;159274;-39
2022/05/14 03:28:42;;;;;;;22.02;1.95;;;;;;;24.44;41.35;99720.78;7313670;19;159333;-38
2022/05/14 03:31:07;;;;;;;33.70;3.17;;;;;;;24.51;41.29;99728.06;7312966;19;154424;-39
2022/05/14 03:33:32;;;;;;;22.23;2.00;;;;;;;24.44;41.22;99728.66;7315279;19;154650;-39
2022/05/14 03:35:58;;;;;;;6.60;0.77;;;;;;;24.43;40.74;99734.06;7314751;19;149355;-38
2022/05/14 03:38:23;;;;;;;26.33;2.33;;;;;;;24.43;41.01;99727.03;7314677;19;158604;-40
2022/05/14 03:40:48;;;;;;;40.30;3.07;;;;;;;24.46;41.21;99739.06;7313328;19;151725;-39
2022/05/14 03:43:14;;;;;;;29.40;2.70;;;;;;;24.39;41.17;99738.81;7313043;19;154900;-39
2022/05/14 03:45:39;;;;;;;19.53;1.83;;;;;;;24.40;41.65;99727.34;7314129;19;129646;-40
2022/05/14 03:48:04;;;;;;;31.98;2.90;;;;;;;24.40;41.54;99742.28;7311307;19;158865;-39
2022/05/14 03:50:30;;;;;;;22.85;2.08;;;;;;;24.48;41.41;99738.91;7313188;19;130145;-40
2022/05/14 03:52:55;;;;;;;17.97;1.60;;;;;;;24.44;41.46;99744.44;7314440;19;154326;-37
2022/05/14 03:55:20;;;;;;;98.87;9.50;;;;;;;24.42;41.51;99735.91;7311353;19;130249;-39
2022/05/14 03:57:46;;;;;;;5.80;0.80;;;;;;;24.45;41.49;99738.22;7313373;19;131333;-39
2022/05/14 04:00:11;;;;;;;33.53;3.03;;;;;;;24.42;41.21;99741.16;7313994;19;154840;-39
2022/05/14 04:02:37;;;;;;;24.30;2.43;;;;;;;24.47;41.40;99740.69;7314614;19;130132;-38
2022/05/14 04:05:03;;;;;;;21.87;1.83;;;;;;;24.44;41.57;99744.44;7315080;19;130668;-39
2022/05/14 04:07:30;;;;;;;29.87;2.83;;;;;;;24.43;41.70;99745.44;7309513;19;130939;-39
2022/05/14 04:09:55;;;;;;;21.75;2.00;;;;;;;24.43;41.24;99745.44;7314075;19;130113;-37
2022/05/14 04:12:20;;;;;;;22.33;1.93;;;;;;;24.44;41.48;99744.44;7311029;19;129773;-40
2022/05/14 04:14:46;;;;;;;24.43;2.30;;;;;;;24.44;41.55;99744.44;7313655;19;158678;-40
2022/05/14 04:17:11;;;;;;;16.70;1.83;;;;;;;24.40;40.78;99737.03;7310357;19;158612;-37
2022/05/14 04:19:39;;;;;;;39.40;3.95;;;;;;;24.44;41.67;99736.56;7312158;19;129238;-38
2022/05/14 04:22:05;;;;;;;26.97;2.67;;;;;;;24.36;41.35;99741.75;7311534;19;129734;-38
2022/05/14 04:24:32;;;;;;;26.97;2.53;;;;;;;24.36;40.91;99725.19;7313795;19;130681;-39
2022/05/14 04:26:57;;;;;;;19.45;1.67;;;;;;;24.45;40.96;99738.22;7312726;19;129614;-38
2022/05/14 04:29:22;;;;;;;11.43;1.17;;;;;;;24.42;41.20;99746.41;7313070;19;132496;-39
2022/05/14 04:31:48;;;;;;;24.17;2.07;;;;;;;24.36;41.27;99739.13;7310450;19;154574;-39
2022/05/14 04:34:13;;;;;;;33.90;3.10;;;;;;;24.43;41.49;99748.06;7311638;19;159321;-40
2022/05/14 04:36:39;;;;;;;31.88;3.10;;;;;;;24.40;41.20;99737.03;7309520;19;157292;-39
2022/05/14 04:39:04;;;;;;;30.23;2.80;;;;;;;24.42;41.55;99741.16;7313868;19;130092;-38
2022/05/14 04:41:30;;;;;;;35.45;3.15;;;;;;;24.38;41.04;99739.81;7313128;19;129687;-37
2022/05/14 04:43:57;;;;;;;18.63;1.77;;;;;;;24.45;41.01;99751.34;7314934;19;130222;-40
2022/05/14 04:46:23;;;;;;;30.38;2.70;;;;;;;24.41;41.51;99744.75;7311333;19;130556;-40
2022/05/14 04:48:48;;;;;;;27.73;2.53;;;;;;;24.41;40.97;99749.19;7311710;19;129848;-39
2022/05/14 04:51:13;;;;;;;21.83;1.95;;;;;;;24.39;40.97;99751.16;7311053;19;154914;-40
2022/05/14 04:53:39;;;;;;;20.50;1.93;;;;;;;24.48;41.02;99756.31;7312363;19;158390;-40
2022/05/14 04:56:04;;;;;;;26.23;2.40;;;;;;;24.43;40.99;99749.84;7310608;19;157680;-40
2022/05/14 04:58:29;;;;;;;34.20;3.13;;;;;;;24.36;40.97;99739.13;7312693;19;128996;-39
2022/05/14 05:00:56;;;;;;;36.13;3.17;;;;;;;24.48;41.07;99752.03;7312537;19;129697;-38
2022/05/14 05:03:21;;;;;;;21.33;1.98;;;;;;;24.42;41.00;99756.94;7313650;19;129386;-38
2022/05/14 05:05:49;;;;;;;21.13;1.87;;;;;;;24.40;41.13;99758.88;7309140;19;159000;-39
2022/05/14 05:08:15;;;;;;;19.83;1.75;;;;;;;24.47;40.71;99764.34;7314520;19;129149;-39
2022/05/14 05:10:41;;;;;;;28.20;2.33;;;;;;;24.45;40.82;99766.28;7311964;19;129668;-38
2022/05/14 05:13:11;;;;;;;23.83;2.30;;;;;;;24.35;41.08;99749.78;7312682;19;136340;-40
2022/05/14 05:15:37;;;;;;;127.88;11.82;;;;;;;24.40;41.07;99753.63;7307399;19;132145;-38
2022/05/14 05:18:03;;;;;;;10.67;1.27;;;;;;;24.45;41.51;99766.28;7308395;19;130231;-40
2022/05/14 05:20:29;;;;;;;16.50;1.60;;;;;;;24.45;41.15;99767.13;7313926;19;129111;-39
2022/05/14 05:22:54;;;;;;;23.47;2.10;;;;;;;24.44;41.27;99775.97;7307452;19;130756;-38
2022/05/14 05:25:20;;;;;;;36.83;3.47;;;;;;;24.39;41.22;99780.88;7311410;19;129722;-40
2022/05/14 05:27:45;;;;;;;26.23;2.20;;;;;;;24.40;41.58;99768.56;7310694;19;154402;-40
2022/05/14 05:30:11;;;;;;;33.27;2.87;;;;;;;24.42;41.07;99772.69;7310268;19;153831;-38
2022/05/14 05:32:37;;;;;;;24.70;2.40;;;;;;;24.44;41.03;99772.53;7309255;19;131258;-40
2022/05/14 05:35:03;;;;;;;20.63;1.92;;;;;;;24.41;41.45;99778.91;7309865;19;129581;-40
2022/05/14 05:37:28;;;;;;;21.85;2.10;;;;;;;24.39;41.65;99765.09;7311886;19;129963;-39
2022/05/14 05:39:54;;;;;;;37.90;3.37;;;;;;;24.49;40.80;99767.66;7306407;19;155254;-38
2022/05/14 05:42:19;;;;;;;30.63;2.77;;;;;;;24.48;41.09;99767.81;7309493;19;158632;-38
2022/05/14 05:44:45;;;;;;;7.90;0.83;;;;;;;24.45;41.22;99767.13;7307519;19;130742;-41
2022/05/14 05:47:10;;;;;;;34.53;3.20;;;;;;;24.45;41.57;99768.94;7304067;19;129519;-40
2022/05/14 05:49:40;;;;;;;26.30;2.33;;;;;;;24.48;40.69;99782.59;7305727;19;154261;-37
2022/05/14 05:52:05;;;;;;;25.10;2.15;;;;;;;24.47;40.98;99782.75;7300335;19;131556;-39
2022/05/14 05:57:15;;;;;;;32.88;2.95;;;;;;;24.43;40.73;99787.47;7307334;19;131009;-39
2022/05/14 05:59:40;;;;;;;58.40;4.97;;;;;;;24.44;40.86;99796.19;7310064;19;129306;-40
2022/05/14 06:02:08;;;;;;;34.20;3.38;;;;;;;24.48;40.78;99798.34;7301936;19;158725;-39
2022/05/14 06:04:33;;;;;;;20.15;2.08;;;;;;;24.42;40.82;99793.72;7311503;19;130475;-39
2022/05/14 06:06:59;;;;;;;77.27;7.00;;;;;;;24.44;41.58;99802.25;7288516;19;133167;-38
2022/05/14 06:09:26;;;;;;;87.77;8.33;;;;;;;24.48;41.89;99801.97;7281454;19;130861;-38
2022/05/14 06:11:52;;;;;;;18.38;1.58;;;;;;;24.54;41.80;99806.59;7308732;19;130349;-40
2022/05/14 06:14:18;;;;;;;42.10;3.75;;;;;;;24.58;42.34;99802.72;7308100;19;129412;-38
2022/05/14 06:16:44;;;;;;;18.67;1.53;;;;;;;24.56;41.84;99796.78;7309223;19;128988;-39
2022/05/14 06:19:10;;;;;;;28.70;2.77;;;;;;;24.55;42.04;99808.25;7310105;19;131278;-40
2022/05/14 06:21:36;;;;;;;28.77;2.60;;;;;;;24.61;42.07;99811.09;7308118;19;133207;-39
2022/05/14 06:24:03;;;;;;;28.27;2.72;;;;;;;24.66;42.23;99800.13;7310449;19;129591;-39
2022/05/14 06:26:29;;;;;;;52.35;4.35;;;;;;;24.70;42.19;99798.84;7305264;19;129292;-38
2022/05/14 06:28:54;;;;;;;25.43;2.23;;;;;;;24.66;42.61;99805.38;7309394;19;129635;-39
2022/05/14 06:31:19;;;;;;;48.47;4.17;;;;;;;24.60;41.69;99777.06;7306025;19;129639;-39
2022/05/14 06:33:46;;;;;;;23.27;1.98;;;;;;;24.67;42.10;99799.97;7306439;19;158463;-40
2022/05/14 06:36:12;;;;;;;36.95;3.47;;;;;;;24.67;42.05;99802.59;7304900;19;130367;-39
2022/05/14 06:38:37;;;;;;;32.67;3.13;;;;;;;24.69;41.92;99800.69;7309981;19;130070;-38
2022/05/14 06:41:11;;;;;;;45.77;4.00;;;;;;;24.71;42.29;99803.16;7309487;19;129145;-40
2022/05/14 06:43:36;;;;;;;23.63;2.28;;;;;;;24.65;42.01;99806.34;7309544;19;129178;-39
2022/05/14 06:46:02;;;;;;;39.33;3.67;;;;;;;24.69;42.51;99797.22;7305664;19;150317;-39
2022/05/14 06:48:27;;;;;;;26.67;2.67;;;;;;;24.98;43.11;99787.19;7308290;19;152415;-40
2022/05/14 06:50:55;;;;;;;37.93;3.50;;;;;;;25.15;43.61;99802.09;7307142;19;157571;-40
2022/05/14 06:53:21;;;;;;;28.88;2.97;;;;;;;25.19;43.38;99816.56;7307327;19;130339;-39
2022/05/14 06:55:50;;;;;;;;;;;;;;;25.29;45.05;99815.47;7305984;19;130946;-39
2022/05/14 06:58:19;;;;;;;24.20;2.20;;;;;;;25.25;44.73;99810.69;7309551;19;130081;-40
2022/05/14 07:00:45;;;;;;;23.73;2.47;;;;;;;25.33;44.19;99810.72;7307011;19;130070;-39
2022/05/14 07:08:39;;;;;;;25.95;2.63;;;;;;;25.40;45.40;99814.41;7307594;19;130228;-40
2022/05/14 07:11:04;;;;;;;20.30;2.27;;;;;;;25.48;44.83;99819.69;7307079;19;158253;-38
2022/05/14 07:13:29;;;;;;;26.80;2.83;;;;;;;25.45;45.54;99825.28;7309688;19;158559;-39
2022/05/14 07:15:54;;;;;;;54.63;5.23;;;;;;;25.30;45.77;99803.94;7300920;19;153625;-38
2022/05/14 07:18:20;;;;;;;29.53;2.70;;;;;;;25.39;45.37;99825.91;7306742;19;154737;-39
2022/05/14 07:20:45;;;;;;;33.17;2.97;;;;;;;25.46;46.01;99829.56;7307222;19;159719;-39
2022/05/14 07:23:10;;;;;;;30.93;2.97;;;;;;;25.41;45.86;99831.84;7307617;19;158766;-39
2022/05/14 07:25:36;;;;;;;26.73;2.77;;;;;;;25.47;45.78;99828.56;7305984;19;153877;-39
2022/05/14 07:28:01;;;;;;;37.80;3.47;;;;;;;25.50;45.79;99828.25;7307343;19;154002;-40
2022/05/14 07:30:27;;;;;;;34.27;3.10;;;;;;;25.47;45.51;99824.13;7309537;19;131130;-40
2022/05/14 07:32:52;;;;;;;30.38;2.90;;;;;;;25.50;46.10;99828.25;7306444;19;129489;-39
2022/05/14 07:35:18;;;;;;;35.07;3.40;;;;;;;25.51;46.34;99820.19;7305976;19;129186;-39
2022/05/14 07:37:48;;;;;;;17.33;1.83;;;;;;;25.58;46.00;99818.56;7310840;19;129192;-38
2022/05/14 07:40:19;;;;;;;32.53;3.17;;;;;;;25.54;46.55;99808.50;7307956;19;130485;-40
2022/05/14 07:42:52;;;;;;;15.75;1.48;;;;;;;25.46;46.55;99814.59;7309161;19;132592;-39
2022/05/14 07:45:21;;;;;;;39.00;3.83;;;;;;;25.58;46.14;99818.56;7305319;19;129389;-39
2022/05/14 07:47:48;;;;;;;13.45;1.27;;;;;;;25.56;46.24;99827.59;7312009;19;130137;-38
2022/05/14 07:50:13;;;;;;;29.15;2.60;;;;;;;25.59;46.04;99828.13;7315980;19;130266;-39
2022/05/14 07:52:41;;;;;;;17.23;2.17;;;;;;;25.62;45.63;99819.91;7309526;19;158394;-40
2022/05/14 07:55:07;;;;;;;38.63;3.70;;;;;;;25.59;46.68;99825.50;7312071;19;130417;-39
2022/05/14 07:57:32;;;;;;;34.23;3.23;;;;;;;25.55;46.53;99815.44;7310289;19;129991;-37
2022/05/14 07:59:57;;;;;;;39.67;3.85;;;;;;;25.48;46.68;99825.78;7310570;19;131538;-37
2022/05/14 08:02:26;;;;;;;44.87;4.73;;;;;;;25.45;46.84;99822.66;7307907;19;158422;-38
2022/05/14 08:04:52;;;;;;;23.90;2.35;;;;;;;25.48;46.22;99817.06;7313987;19;129984;-41
2022/05/14 08:07:17;;;;;;;15.60;1.60;;;;;;;25.45;46.12;99820.00;7313866;19;129411;-39
2022/05/14 08:09:43;;;;;;;29.97;2.80;;;;;;;25.47;46.20;99810.13;7311770;19;159265;-40
2022/05/14 08:12:08;;;;;;;30.73;3.10;;;;;;;25.47;46.91;99818.03;7311913;19;130197;-40
2022/05/14 08:14:36;;;;;;;82.43;6.80;;;;;;;25.43;46.37;99806.19;7309420;19;129603;-38
2022/05/14 08:17:01;;;;;;;25.67;2.50;;;;;;;25.46;46.31;99811.94;7312658;19;131101;-40
2022/05/14 08:19:26;;;;;;;61.67;4.97;;;;;;;25.46;47.08;99817.22;7313020;19;145835;-39
2022/05/14 08:24:36;;;;;;;31.45;2.92;;;;;;;25.42;46.88;99810.59;7314679;19;128816;-40
2022/05/14 08:27:05;;;;;;;33.23;3.63;;;;;;;25.44;47.41;99807.81;7309887;19;129020;-40
2022/05/14 08:29:32;;;;;;;29.75;2.75;;;;;;;25.43;47.43;99806.19;7313744;19;129440;-39
2022/05/14 08:31:57;;;;;;;22.40;2.25;;;;;;;25.40;47.04;99809.13;7311868;19;131266;-40
2022/05/14 08:34:22;;;;;;;42.77;3.90;;;;;;;25.33;47.15;99794.91;7312080;19;154678;-40
2022/05/14 08:36:47;;;;;;;15.90;1.70;;;;;;;25.44;47.30;99807.81;7310170;19;155248;-39
2022/05/14 08:39:13;;;;;;;30.93;3.20;;;;;;;25.51;46.61;99804.41;7311307;19;158307;-40
2022/05/14 08:41:42;;;;;;;22.93;2.63;;;;;;;25.47;47.50;99803.06;7312705;19;130482;-40
2022/05/14 08:44:12;;;;;;;25.33;2.45;;;;;;;25.38;48.09;99797.94;7312905;19;130294;-39
2022/05/14 08:46:40;;;;;;;22.65;2.50;;;;;;;25.35;48.33;99798.25;7309638;19;131061;-39
2022/05/14 08:49:25;;;;;;;32.70;3.13;;;;;;;25.32;48.71;99803.81;7313787;19;129115;-38
2022/05/14 08:51:52;;;;;;;28.30;2.63;;;;;;;25.45;47.40;99806.84;7311968;19;131131;-41
2022/05/14 08:54:18;;;;;;;28.83;2.40;;;;;;;25.40;47.95;99801.25;7315564;19;129615;-39
2022/05/14 08:57:13;;;;;;;20.80;2.03;;;;;;;25.33;49.38;99800.19;7311748;19;129048;-39
2022/05/14 08:59:57;;;;;;;15.13;1.85;;;;;;;25.30;47.72;99795.25;7314352;19;130169;-40
2022/05/14 09:02:34;;;;;;;22.52;2.03;;;;;;;25.30;48.49;99801.31;7312296;19;129391;-39
2022/05/14 09:05:07;;;;;;;25.83;2.58;;;;;;;25.42;48.41;99810.59;7310208;19;130207;-40
2022/05/14 09:07:32;;;;;;;55.53;5.35;;;;;;;25.40;47.50;99802.03;7310156;19;129077;-39
2022/05/14 09:09:58;;;;;;;23.93;2.77;;;;;;;25.41;45.92;99808.13;7313631;19;129600;-40
2022/05/14 09:12:30;;;;;;;73.77;7.37;;;;;;;25.71;44.94;99802.31;7292947;19;133038;-38
2022/05/14 09:15:02;;;;;;;31.63;3.53;;;;;;;26.06;44.70;99786.28;7313331;19;129235;-39
2022/05/14 09:17:29;;;;;;;17.33;2.08;;;;;;;26.21;43.59;99779.34;7312530;19;129467;-39
2022/05/14 09:19:57;;;;;;;42.53;4.43;;;;;;;26.64;42.42;99784.25;7313093;19;131152;-38
2022/05/14 09:22:22;;;;;;;34.95;3.03;;;;;;;26.67;43.11;99769.94;7312744;19;129824;-38
2022/05/14 09:25:21;;;;;;;11.47;1.57;;;;;;;26.87;42.56;99779.94;7309561;19;155147;-39
2022/05/14 09:27:59;;;;;;;47.90;4.60;;;;;;;26.98;42.58;99770.00;7311388;19;129409;-39
2022/05/14 09:30:25;;;;;;;41.25;3.50;;;;;;;27.21;41.90;99776.19;7312785;19;131936;-37
2022/05/14 09:32:50;;;;;;;13.47;1.53;;;;;;;27.25;41.68;99782.78;7310041;19;130425;-39
2022/05/14 09:35:26;;;;;;;52.30;5.20;;;;;;;27.31;42.44;99787.41;7308711;19;129428;-38
2022/05/14 09:38:05;;;;;;;13.85;1.52;;;;;;;27.45;42.04;99778.75;7312475;19;130023;-39
2022/05/14 09:40:32;;;;;;;26.65;2.65;;;;;;;27.46;41.70;99770.66;7313831;19;129560;-39
2022/05/14 09:43:20;;;;;;;;;;;;;;;27.51;41.90;99776.25;7312857;19;130210;-40
2022/05/14 09:46:10;;;;;;;18.97;2.17;;;;;;;27.57;41.86;99767.63;7309876;19;129296;-39
2022/05/14 09:48:50;;;;;;;31.55;3.00;;;;;;;27.61;41.77;99778.66;7313599;19;129985;-40
2022/05/14 09:51:35;;;;;;;21.52;2.45;;;;;;;27.60;42.23;99779.69;7311966;19;129145;-39
2022/05/14 09:54:34;;;;;;;24.00;2.60;;;;;;;27.64;42.31;99765.09;7311537;19;131114;-39
2022/05/14 09:57:57;;;;;;;10.63;1.45;;;;;;;27.78;42.25;99774.94;7312707;19;129103;-39
2022/05/14 10:00:41;;;;;;;43.75;4.22;;;;;;;27.89;41.39;99782.44;7306853;19;130234;-40
2022/05/14 10:03:18;;;;;;;22.88;2.65;;;;;;;27.24;40.94;99752.91;7309881;19;129561;-40
2022/05/14 10:05:56;;;;;;;;;;;;;;;26.90;41.73;99768.22;7305620;19;130327;-38
2022/05/14 10:08:54;;;;;;;19.27;2.38;;;;;;;26.63;43.04;99771.22;7310103;19;130064;-40
2022/05/14 10:11:36;;;;;;;37.30;3.35;;;;;;;26.91;42.64;99761.94;7310408;19;130202;-38
2022/05/14 10:14:20;;;;;;;26.08;2.70;;;;;;;27.33;42.24;99753.72;7312898;19;129208;-40
2022/05/14 10:17:06;;;;;;;27.13;2.78;;;;;;;27.59;41.91;99759.50;7310166;19;129516;-40
2022/05/14 10:20:00;;;;;;;34.38;3.42;;;;;;;27.78;41.39;99753.78;7312975;19;128836;-41
2022/05/14 10:28:27;;;;;;;;;;;;;;;27.04;43.37;99758.78;7311689;19;129265;-40
2022/05/14 10:31:18;;;;;;;37.13;3.97;;;;;;;26.87;43.80;99742.19;7310448;19;129379;-40
2022/05/14 10:33:43;;;;;;;20.48;2.58;;;;;;;26.89;43.99;99756.84;7310705;19;129244;-39
2022/05/14 10:36:28;;;;;;;22.43;2.70;;;;;;;26.85;44.32;99758.19;7306310;19;129306;-38
2022/05/14 10:39:01;;;;;;;24.02;2.78;;;;;;;26.84;44.65;99753.09;7310318;19;129259;-40
2022/05/14 10:41:32;;;;;;;35.10;3.45;;;;;;;27.05;44.27;99745.41;7309287;19;131018;-40
2022/05/14 10:44:01;;;;;;;24.08;2.78;;;;;;;27.47;43.64;99747.72;7310481;19;130993;-40
2022/05/14 10:46:29;;;;;;;30.30;3.25;;;;;;;27.80;42.79;99747.31;7307223;19;130068;-38
2022/05/14 10:49:07;;;;;;;22.15;2.50;;;;;;;27.81;43.29;99746.34;7310599;19;130805;-40
2022/05/14 10:51:42;;;;;;;30.00;2.92;;;;;;;27.68;43.20;99750.56;7311034;19;130139;-40
2022/05/14 10:54:12;;;;;;;26.48;2.83;;;;;;;27.51;44.76;99741.91;7309296;19;128999;-39
2022/05/14 10:56:49;;;;;;;27.02;2.85;;;;;;;27.40;44.06;99729.13;7306985;19;129886;-39
2022/05/14 10:59:14;;;;;;;19.30;1.92;;;;;;;27.33;44.55;99740.53;7309593;19;129238;-40
2022/05/14 11:01:52;;;;;;;31.87;3.33;;;;;;;27.19;45.17;99741.25;7311304;19;129731;-40
2022/05/14 11:04:30;;;;;;;28.27;2.97;;;;;;;27.13;45.61;99739.28;7303671;19;154656;-37
2022/05/14 11:07:05;;;;;;;22.52;2.80;;;;;;;27.04;46.25;99742.94;7307470;19;130302;-38
2022/05/14 11:09:31;;;;;;;30.40;3.08;;;;;;;26.92;45.11;99735.38;7309429;19;130351;-39
2022/05/14 11:12:01;;;;;;;21.67;2.57;;;;;;;26.86;45.51;99741.34;7302593;19;155439;-38
2022/05/14 11:14:44;;;;;;;47.50;4.97;;;;;;;26.83;46.93;99739.06;7308764;19;130134;-39
2022/05/14 11:17:32;;;;;;;30.50;3.25;;;;;;;26.66;46.92;99720.78;7307509;19;131553;-41
2022/05/14 11:20:06;;;;;;;22.17;2.40;;;;;;;26.64;46.71;99718.28;7308647;19;129712;-38
2022/05/14 11:22:42;;;;;;;27.67;2.90;;;;;;;26.69;47.67;99729.19;7315338;19;130049;-41
2022/05/14 11:25:17;;;;;;;31.30;3.55;;;;;;;26.69;46.16;99733.69;7314850;19;130344;-40
2022/05/14 11:28:03;;;;;;;30.63;3.30;;;;;;;26.63;47.23;99735.13;7313842;19;129551;-39
2022/05/14 11:30:37;;;;;;;13.15;1.85;;;;;;;26.49;47.03;99717.38;7316534;19;131099;-40
2022/05/14 11:33:25;;;;;;;21.67;2.35;;;;;;;26.50;46.02;99724.28;7309662;19;129065;-39
2022/05/14 11:35:54;;;;;;;22.20;2.40;;;;;;;26.44;45.71;99724.97;7312152;19;130592;-39
2022/05/14 11:38:26;;;;;;;33.95;3.67;;;;;;;26.38;47.96;99730.88;7313686;19;131906;-38
2022/05/14 11:41:28;;;;;;;30.88;3.08;;;;;;;26.36;48.14;99732.88;7311765;19;130381;-39
2022/05/14 11:43:54;;;;;;;22.70;2.70;;;;;;;26.31;46.69;99732.53;7312738;19;129237;-39
2022/05/14 11:46:24;;;;;;;27.53;3.00;;;;;;;26.27;46.25;99739.16;7312764;19;129598;-39
2022/05/14 11:49:07;;;;;;;27.33;3.00;;;;;;;26.18;48.75;99740.13;7316598;19;129632;-39